Terminal Aerodrome Forecast
Issued by NWS

Home | Current Version | Previous Version | Text Only | Print | Product List | Glossary On
Versions: 1 2 3 4 5 6 7 8 9 10 11 12 13 14 15 16 17 18 19 20
452
FTUS44 KLZK 311121
TAFPBF
TAF
KPBF 311121Z 3112/0112 VRB05KT P6SM VCTS FEW005 SCT020 BKN050CB
      TEMPO 3112/3116 -SHRA BKN020
     FM311600 15007KT P6SM VCTS BKN040CB BKN250
     FM010300 VRB04KT P6SM VCSH BKN050 BKN250
      AMD NOT SKED=

USA.gov is the U.S. government's official web portal to all federal, state and local government web resources and services.